sensor_id;sensor_type;location;lat;lon;timestamp;P1;durP1;ratioP1;P2;durP2;ratioP2
48835;SDS011;62581;47.342;7.908;2023-03-31T00:02:04;15.68;;;7.65;;
48835;SDS011;62581;47.342;7.908;2023-03-31T00:04:37;15.70;;;7.45;;
48835;SDS011;62581;47.342;7.908;2023-03-31T00:07:12;16.88;;;7.07;;
48835;SDS011;62581;47.342;7.908;2023-03-31T00:09:40;19.10;;;7.13;;
48835;SDS011;62581;47.342;7.908;2023-03-31T00:12:10;12.75;;;6.63;;
48835;SDS011;62581;47.342;7.908;2023-03-31T00:14:37;16.10;;;7.72;;
48835;SDS011;62581;47.342;7.908;2023-03-31T00:17:05;15.02;;;7.05;;
48835;SDS011;62581;47.342;7.908;2023-03-31T00:19:32;11.05;;;6.45;;
48835;SDS011;62581;47.342;7.908;2023-03-31T00:21:59;15.07;;;6.43;;
48835;SDS011;62581;47.342;7.908;2023-03-31T00:24:30;14.43;;;6.95;;
48835;SDS011;62581;47.342;7.908;2023-03-31T00:26:58;12.68;;;6.90;;
48835;SDS011;62581;47.342;7.908;2023-03-31T00:29:26;13.57;;;7.03;;
48835;SDS011;62581;47.342;7.908;2023-03-31T00:31:53;12.13;;;7.35;;
48835;SDS011;62581;47.342;7.908;2023-03-31T00:34:20;16.63;;;7.72;;
48835;SDS011;62581;47.342;7.908;2023-03-31T00:36:48;15.07;;;7.85;;
48835;SDS011;62581;47.342;7.908;2023-03-31T00:39:16;14.85;;;7.80;;
48835;SDS011;62581;47.342;7.908;2023-03-31T00:41:45;11.77;;;7.10;;
48835;SDS011;62581;47.342;7.908;2023-03-31T00:44:13;16.15;;;7.68;;
48835;SDS011;62581;47.342;7.908;2023-03-31T00:46:48;14.55;;;7.90;;
48835;SDS011;62581;47.342;7.908;2023-03-31T00:49:20;13.70;;;7.68;;
48835;SDS011;62581;47.342;7.908;2023-03-31T00:51:55;15.02;;;7.95;;
48835;SDS011;62581;47.342;7.908;2023-03-31T00:54:26;16.35;;;7.50;;
48835;SDS011;62581;47.342;7.908;2023-03-31T00:56:56;16.52;;;7.35;;
48835;SDS011;62581;47.342;7.908;2023-03-31T00:59:27;18.17;;;8.43;;
48835;SDS011;62581;47.342;7.908;2023-03-31T01:01:57;17.40;;;8.43;;
48835;SDS011;62581;47.342;7.908;2023-03-31T01:04:27;16.42;;;7.95;;
48835;SDS011;62581;47.342;7.908;2023-03-31T01:06:59;19.90;;;7.55;;
48835;SDS011;62581;47.342;7.908;2023-03-31T01:09:33;18.35;;;8.65;;
48835;SDS011;62581;47.342;7.908;2023-03-31T01:12:05;12.73;;;7.25;;
48835;SDS011;62581;47.342;7.908;2023-03-31T01:14:34;17.35;;;8.63;;
48835;SDS011;62581;47.342;7.908;2023-03-31T01:17:02;13.93;;;7.85;;
48835;SDS011;62581;47.342;7.908;2023-03-31T01:19:31;14.23;;;7.88;;
48835;SDS011;62581;47.342;7.908;2023-03-31T01:22:26;16.92;;;8.48;;
48835;SDS011;62581;47.342;7.908;2023-03-31T01:25:20;13.88;;;8.13;;
48835;SDS011;62581;47.342;7.908;2023-03-31T01:28:18;15.20;;;8.68;;
48835;SDS011;62581;47.342;7.908;2023-03-31T01:30:57;14.43;;;8.13;;
48835;SDS011;62581;47.342;7.908;2023-03-31T01:33:59;12.75;;;8.10;;
48835;SDS011;62581;47.342;7.908;2023-03-31T01:42:35;15.63;;;8.07;;
48835;SDS011;62581;47.342;7.908;2023-03-31T01:45:07;17.52;;;8.27;;
48835;SDS011;62581;47.342;7.908;2023-03-31T01:47:43;15.00;;;8.63;;
48835;SDS011;62581;47.342;7.908;2023-03-31T01:50:16;14.82;;;8.35;;
48835;SDS011;62581;47.342;7.908;2023-03-31T01:52:51;15.05;;;8.90;;
48835;SDS011;62581;47.342;7.908;2023-03-31T01:55:28;15.90;;;8.52;;
48835;SDS011;62581;47.342;7.908;2023-03-31T01:58:02;14.32;;;8.27;;
48835;SDS011;62581;47.342;7.908;2023-03-31T02:00:34;14.38;;;8.10;;
48835;SDS011;62581;47.342;7.908;2023-03-31T02:03:08;17.50;;;8.65;;
48835;SDS011;62581;47.342;7.908;2023-03-31T02:05:41;14.68;;;8.23;;
48835;SDS011;62581;47.342;7.908;2023-03-31T02:08:13;15.13;;;8.50;;
48835;SDS011;62581;47.342;7.908;2023-03-31T02:10:48;13.35;;;8.02;;
48835;SDS011;62581;47.342;7.908;2023-03-31T02:13:18;16.58;;;7.68;;
48835;SDS011;62581;47.342;7.908;2023-03-31T02:15:50;14.60;;;7.20;;
48835;SDS011;62581;47.342;7.908;2023-03-31T02:18:22;18.95;;;8.50;;
48835;SDS011;62581;47.342;7.908;2023-03-31T02:20:54;18.73;;;8.73;;
48835;SDS011;62581;47.342;7.908;2023-03-31T02:23:26;15.52;;;7.78;;
48835;SDS011;62581;47.342;7.908;2023-03-31T02:25:59;20.58;;;8.55;;
48835;SDS011;62581;47.342;7.908;2023-03-31T02:28:30;14.13;;;7.70;;
48835;SDS011;62581;47.342;7.908;2023-03-31T02:31:02;12.77;;;7.47;;
48835;SDS011;62581;47.342;7.908;2023-03-31T02:33:39;11.43;;;7.68;;
48835;SDS011;62581;47.342;7.908;2023-03-31T02:36:06;16.30;;;7.68;;
48835;SDS011;62581;47.342;7.908;2023-03-31T02:38:34;14.25;;;7.57;;
48835;SDS011;62581;47.342;7.908;2023-03-31T02:41:07;17.40;;;7.68;;
48835;SDS011;62581;47.342;7.908;2023-03-31T02:46:01;11.18;;;6.63;;
48835;SDS011;62581;47.342;7.908;2023-03-31T02:48:28;15.40;;;7.47;;
48835;SDS011;62581;47.342;7.908;2023-03-31T02:54:14;18.23;;;7.43;;
48835;SDS011;62581;47.342;7.908;2023-03-31T02:56:58;13.95;;;7.07;;
48835;SDS011;62581;47.342;7.908;2023-03-31T02:59:38;16.23;;;7.22;;
48835;SDS011;62581;47.342;7.908;2023-03-31T03:02:16;13.43;;;6.57;;
48835;SDS011;62581;47.342;7.908;2023-03-31T03:07:45;17.00;;;7.82;;
48835;SDS011;62581;47.342;7.908;2023-03-31T03:10:24;20.65;;;8.65;;
48835;SDS011;62581;47.342;7.908;2023-03-31T03:13:02;15.20;;;7.70;;
48835;SDS011;62581;47.342;7.908;2023-03-31T03:15:35;15.15;;;8.27;;
48835;SDS011;62581;47.342;7.908;2023-03-31T03:18:05;10.80;;;7.35;;
48835;SDS011;62581;47.342;7.908;2023-03-31T03:20:33;18.15;;;8.05;;
48835;SDS011;62581;47.342;7.908;2023-03-31T03:23:00;13.77;;;7.07;;
48835;SDS011;62581;47.342;7.908;2023-03-31T03:25:27;16.52;;;6.60;;
48835;SDS011;62581;47.342;7.908;2023-03-31T03:27:54;13.75;;;6.38;;
48835;SDS011;62581;47.342;7.908;2023-03-31T03:30:23;13.35;;;7.35;;
48835;SDS011;62581;47.342;7.908;2023-03-31T03:32:50;13.50;;;7.78;;
48835;SDS011;62581;47.342;7.908;2023-03-31T03:35:18;13.77;;;7.40;;
48835;SDS011;62581;47.342;7.908;2023-03-31T03:37:45;14.38;;;8.18;;
48835;SDS011;62581;47.342;7.908;2023-03-31T03:40:12;13.82;;;7.82;;
48835;SDS011;62581;47.342;7.908;2023-03-31T03:42:40;14.00;;;7.20;;
48835;SDS011;62581;47.342;7.908;2023-03-31T03:45:07;12.35;;;8.23;;
48835;SDS011;62581;47.342;7.908;2023-03-31T03:47:36;13.35;;;8.20;;
48835;SDS011;62581;47.342;7.908;2023-03-31T03:50:03;16.73;;;8.43;;
48835;SDS011;62581;47.342;7.908;2023-03-31T03:52:31;12.98;;;7.18;;
48835;SDS011;62581;47.342;7.908;2023-03-31T03:54:58;21.38;;;8.18;;
48835;SDS011;62581;47.342;7.908;2023-03-31T03:57:26;16.77;;;8.48;;
48835;SDS011;62581;47.342;7.908;2023-03-31T03:59:53;18.65;;;8.20;;
48835;SDS011;62581;47.342;7.908;2023-03-31T04:02:20;20.75;;;8.10;;
48835;SDS011;62581;47.342;7.908;2023-03-31T04:04:51;19.45;;;7.45;;
48835;SDS011;62581;47.342;7.908;2023-03-31T04:07:18;12.23;;;7.55;;
48835;SDS011;62581;47.342;7.908;2023-03-31T04:09:45;15.52;;;7.57;;
48835;SDS011;62581;47.342;7.908;2023-03-31T04:12:12;13.05;;;7.45;;
48835;SDS011;62581;47.342;7.908;2023-03-31T04:14:39;11.18;;;7.60;;
48835;SDS011;62581;47.342;7.908;2023-03-31T04:17:09;15.02;;;8.13;;
48835;SDS011;62581;47.342;7.908;2023-03-31T04:19:39;14.45;;;7.65;;
48835;SDS011;62581;47.342;7.908;2023-03-31T04:22:23;11.18;;;7.90;;
48835;SDS011;62581;47.342;7.908;2023-03-31T04:24:53;13.88;;;6.80;;
48835;SDS011;62581;47.342;7.908;2023-03-31T04:27:22;13.60;;;7.63;;
48835;SDS011;62581;47.342;7.908;2023-03-31T04:29:51;11.70;;;7.60;;
48835;SDS011;62581;47.342;7.908;2023-03-31T04:32:21;13.70;;;6.78;;
48835;SDS011;62581;47.342;7.908;2023-03-31T04:34:49;11.70;;;6.05;;
48835;SDS011;62581;47.342;7.908;2023-03-31T04:37:28;18.95;;;6.40;;
48835;SDS011;62581;47.342;7.908;2023-03-31T04:39:59;12.13;;;5.80;;
48835;SDS011;62581;47.342;7.908;2023-03-31T04:42:32;14.35;;;7.00;;
48835;SDS011;62581;47.342;7.908;2023-03-31T04:44:59;25.17;;;7.90;;
48835;SDS011;62581;47.342;7.908;2023-03-31T04:47:27;16.63;;;6.85;;
48835;SDS011;62581;47.342;7.908;2023-03-31T04:49:54;11.27;;;6.85;;
48835;SDS011;62581;47.342;7.908;2023-03-31T04:52:21;12.88;;;6.80;;
48835;SDS011;62581;47.342;7.908;2023-03-31T04:54:49;15.57;;;6.47;;
48835;SDS011;62581;47.342;7.908;2023-03-31T04:57:16;15.80;;;5.63;;
48835;SDS011;62581;47.342;7.908;2023-03-31T04:59:44;14.63;;;5.72;;
48835;SDS011;62581;47.342;7.908;2023-03-31T05:02:11;14.00;;;5.95;;
48835;SDS011;62581;47.342;7.908;2023-03-31T05:04:38;11.13;;;5.75;;
48835;SDS011;62581;47.342;7.908;2023-03-31T05:07:05;13.82;;;5.43;;
48835;SDS011;62581;47.342;7.908;2023-03-31T05:09:32;12.63;;;5.75;;
48835;SDS011;62581;47.342;7.908;2023-03-31T05:12:00;9.85;;;5.13;;
48835;SDS011;62581;47.342;7.908;2023-03-31T05:14:27;9.82;;;5.38;;
48835;SDS011;62581;47.342;7.908;2023-03-31T05:16:54;14.55;;;5.60;;
48835;SDS011;62581;47.342;7.908;2023-03-31T05:19:23;11.32;;;5.13;;
48835;SDS011;62581;47.342;7.908;2023-03-31T05:21:50;14.57;;;5.55;;
48835;SDS011;62581;47.342;7.908;2023-03-31T05:24:17;11.60;;;6.03;;
48835;SDS011;62581;47.342;7.908;2023-03-31T05:26:45;9.55;;;5.40;;
48835;SDS011;62581;47.342;7.908;2023-03-31T05:29:18;15.00;;;5.63;;
48835;SDS011;62581;47.342;7.908;2023-03-31T05:31:45;14.77;;;5.90;;
48835;SDS011;62581;47.342;7.908;2023-03-31T05:34:13;14.85;;;5.43;;
48835;SDS011;62581;47.342;7.908;2023-03-31T05:36:40;12.75;;;6.25;;
48835;SDS011;62581;47.342;7.908;2023-03-31T05:39:07;12.40;;;6.70;;
48835;SDS011;62581;47.342;7.908;2023-03-31T05:41:34;13.07;;;5.75;;
48835;SDS011;62581;47.342;7.908;2023-03-31T05:44:01;14.52;;;6.35;;
48835;SDS011;62581;47.342;7.908;2023-03-31T05:46:30;12.32;;;6.20;;
48835;SDS011;62581;47.342;7.908;2023-03-31T05:48:57;10.45;;;5.65;;
48835;SDS011;62581;47.342;7.908;2023-03-31T05:51:24;13.60;;;5.45;;
48835;SDS011;62581;47.342;7.908;2023-03-31T05:53:51;14.75;;;5.30;;
48835;SDS011;62581;47.342;7.908;2023-03-31T05:56:18;11.23;;;5.47;;
48835;SDS011;62581;47.342;7.908;2023-03-31T05:58:46;18.92;;;5.57;;
48835;SDS011;62581;47.342;7.908;2023-03-31T06:01:13;11.43;;;5.22;;
48835;SDS011;62581;47.342;7.908;2023-03-31T06:03:45;9.80;;;5.10;;
48835;SDS011;62581;47.342;7.908;2023-03-31T06:06:13;10.80;;;4.78;;
48835;SDS011;62581;47.342;7.908;2023-03-31T06:08:40;12.10;;;4.83;;
48835;SDS011;62581;47.342;7.908;2023-03-31T06:11:09;13.90;;;6.03;;
48835;SDS011;62581;47.342;7.908;2023-03-31T06:13:38;13.00;;;6.10;;
48835;SDS011;62581;47.342;7.908;2023-03-31T06:16:05;12.00;;;5.72;;
48835;SDS011;62581;47.342;7.908;2023-03-31T06:18:33;10.20;;;5.28;;
48835;SDS011;62581;47.342;7.908;2023-03-31T06:21:02;12.68;;;4.88;;
48835;SDS011;62581;47.342;7.908;2023-03-31T06:23:30;10.68;;;4.93;;
48835;SDS011;62581;47.342;7.908;2023-03-31T06:25:59;14.50;;;5.57;;
48835;SDS011;62581;47.342;7.908;2023-03-31T06:28:27;10.25;;;4.85;;
48835;SDS011;62581;47.342;7.908;2023-03-31T06:30:58;8.43;;;4.60;;
48835;SDS011;62581;47.342;7.908;2023-03-31T06:33:26;12.13;;;4.78;;
48835;SDS011;62581;47.342;7.908;2023-03-31T06:35:54;13.20;;;5.05;;
48835;SDS011;62581;47.342;7.908;2023-03-31T06:38:23;14.68;;;4.57;;
48835;SDS011;62581;47.342;7.908;2023-03-31T06:43:17;8.98;;;4.15;;
48835;SDS011;62581;47.342;7.908;2023-03-31T06:45:45;10.68;;;4.95;;
48835;SDS011;62581;47.342;7.908;2023-03-31T06:48:12;11.77;;;4.47;;
48835;SDS011;62581;47.342;7.908;2023-03-31T06:50:39;11.18;;;4.03;;
48835;SDS011;62581;47.342;7.908;2023-03-31T06:53:07;13.88;;;4.75;;
48835;SDS011;62581;47.342;7.908;2023-03-31T06:55:36;9.90;;;4.35;;
48835;SDS011;62581;47.342;7.908;2023-03-31T07:00:30;9.60;;;4.28;;
48835;SDS011;62581;47.342;7.908;2023-03-31T07:02:58;10.25;;;4.25;;
48835;SDS011;62581;47.342;7.908;2023-03-31T07:05:25;8.93;;;4.22;;
48835;SDS011;62581;47.342;7.908;2023-03-31T07:07:53;11.95;;;4.10;;
48835;SDS011;62581;47.342;7.908;2023-03-31T07:10:20;7.70;;;4.07;;
48835;SDS011;62581;47.342;7.908;2023-03-31T07:12:49;10.70;;;4.03;;
48835;SDS011;62581;47.342;7.908;2023-03-31T07:15:16;11.50;;;4.18;;
48835;SDS011;62581;47.342;7.908;2023-03-31T07:17:44;9.55;;;4.43;;
48835;SDS011;62581;47.342;7.908;2023-03-31T07:20:15;8.23;;;4.32;;
48835;SDS011;62581;47.342;7.908;2023-03-31T07:22:43;8.23;;;3.80;;
48835;SDS011;62581;47.342;7.908;2023-03-31T07:25:11;12.35;;;5.20;;
48835;SDS011;62581;47.342;7.908;2023-03-31T07:27:39;9.68;;;4.05;;
48835;SDS011;62581;47.342;7.908;2023-03-31T07:30:09;8.85;;;4.10;;
48835;SDS011;62581;47.342;7.908;2023-03-31T07:32:39;8.00;;;3.97;;
48835;SDS011;62581;47.342;7.908;2023-03-31T07:35:06;10.38;;;3.90;;
48835;SDS011;62581;47.342;7.908;2023-03-31T07:37:34;11.68;;;4.45;;
48835;SDS011;62581;47.342;7.908;2023-03-31T07:40:01;7.75;;;3.50;;
48835;SDS011;62581;47.342;7.908;2023-03-31T07:42:30;6.32;;;3.70;;
48835;SDS011;62581;47.342;7.908;2023-03-31T07:44:57;5.35;;;3.35;;
48835;SDS011;62581;47.342;7.908;2023-03-31T07:47:26;8.65;;;4.35;;
48835;SDS011;62581;47.342;7.908;2023-03-31T07:49:53;13.57;;;4.22;;
48835;SDS011;62581;47.342;7.908;2023-03-31T07:52:20;14.80;;;4.43;;
48835;SDS011;62581;47.342;7.908;2023-03-31T07:54:47;10.57;;;4.10;;
48835;SDS011;62581;47.342;7.908;2023-03-31T07:57:15;8.68;;;3.75;;
48835;SDS011;62581;47.342;7.908;2023-03-31T07:59:44;8.73;;;4.05;;
48835;SDS011;62581;47.342;7.908;2023-03-31T08:02:12;9.77;;;4.43;;
48835;SDS011;62581;47.342;7.908;2023-03-31T08:04:41;8.93;;;3.92;;
48835;SDS011;62581;47.342;7.908;2023-03-31T08:07:09;10.45;;;3.53;;
48835;SDS011;62581;47.342;7.908;2023-03-31T08:09:37;8.47;;;3.87;;
48835;SDS011;62581;47.342;7.908;2023-03-31T08:12:08;13.20;;;3.97;;
48835;SDS011;62581;47.342;7.908;2023-03-31T08:14:35;8.30;;;4.03;;
48835;SDS011;62581;47.342;7.908;2023-03-31T08:17:02;13.30;;;3.67;;
48835;SDS011;62581;47.342;7.908;2023-03-31T08:19:29;11.02;;;4.05;;
48835;SDS011;62581;47.342;7.908;2023-03-31T08:21:57;9.98;;;4.35;;
48835;SDS011;62581;47.342;7.908;2023-03-31T08:24:24;7.88;;;3.42;;
48835;SDS011;62581;47.342;7.908;2023-03-31T08:26:52;9.27;;;4.15;;
48835;SDS011;62581;47.342;7.908;2023-03-31T08:29:19;17.45;;;4.38;;
48835;SDS011;62581;47.342;7.908;2023-03-31T08:31:46;7.63;;;3.50;;
48835;SDS011;62581;47.342;7.908;2023-03-31T08:34:13;10.55;;;3.83;;
48835;SDS011;62581;47.342;7.908;2023-03-31T08:36:40;9.93;;;4.40;;
48835;SDS011;62581;47.342;7.908;2023-03-31T08:39:08;11.80;;;4.18;;
48835;SDS011;62581;47.342;7.908;2023-03-31T08:41:38;5.85;;;2.85;;
48835;SDS011;62581;47.342;7.908;2023-03-31T08:44:20;8.35;;;3.50;;
48835;SDS011;62581;47.342;7.908;2023-03-31T08:46:51;5.65;;;3.50;;
48835;SDS011;62581;47.342;7.908;2023-03-31T08:49:21;10.75;;;3.35;;
48835;SDS011;62581;47.342;7.908;2023-03-31T08:51:50;5.90;;;3.05;;
48835;SDS011;62581;47.342;7.908;2023-03-31T08:54:26;7.45;;;3.17;;
48835;SDS011;62581;47.342;7.908;2023-03-31T08:56:57;4.60;;;3.05;;
48835;SDS011;62581;47.342;7.908;2023-03-31T08:59:26;6.07;;;2.97;;
48835;SDS011;62581;47.342;7.908;2023-03-31T09:01:57;10.23;;;3.50;;
48835;SDS011;62581;47.342;7.908;2023-03-31T09:04:44;6.70;;;3.00;;
48835;SDS011;62581;47.342;7.908;2023-03-31T09:07:39;6.40;;;3.05;;
48835;SDS011;62581;47.342;7.908;2023-03-31T09:10:32;7.30;;;3.15;;
48835;SDS011;62581;47.342;7.908;2023-03-31T09:13:10;6.80;;;2.92;;
48835;SDS011;62581;47.342;7.908;2023-03-31T09:15:57;11.07;;;3.92;;
48835;SDS011;62581;47.342;7.908;2023-03-31T09:18:29;5.60;;;2.67;;
48835;SDS011;62581;47.342;7.908;2023-03-31T09:21:01;5.43;;;2.92;;
48835;SDS011;62581;47.342;7.908;2023-03-31T09:23:32;4.35;;;2.20;;
48835;SDS011;62581;47.342;7.908;2023-03-31T09:26:05;6.65;;;2.50;;
48835;SDS011;62581;47.342;7.908;2023-03-31T09:28:42;7.28;;;2.20;;
48835;SDS011;62581;47.342;7.908;2023-03-31T09:31:12;5.68;;;2.42;;
48835;SDS011;62581;47.342;7.908;2023-03-31T09:33:41;5.32;;;2.42;;
48835;SDS011;62581;47.342;7.908;2023-03-31T09:36:12;6.22;;;2.97;;
48835;SDS011;62581;47.342;7.908;2023-03-31T09:38:43;6.60;;;3.08;;
48835;SDS011;62581;47.342;7.908;2023-03-31T09:41:13;8.52;;;3.22;;
48835;SDS011;62581;47.342;7.908;2023-03-31T09:43:41;6.47;;;3.10;;
48835;SDS011;62581;47.342;7.908;2023-03-31T09:46:13;9.20;;;3.85;;
48835;SDS011;62581;47.342;7.908;2023-03-31T09:48:47;7.90;;;3.30;;
48835;SDS011;62581;47.342;7.908;2023-03-31T09:51:19;10.48;;;3.70;;
48835;SDS011;62581;47.342;7.908;2023-03-31T09:53:51;9.48;;;3.28;;
48835;SDS011;62581;47.342;7.908;2023-03-31T09:56:33;6.05;;;3.17;;
48835;SDS011;62581;47.342;7.908;2023-03-31T09:59:12;8.55;;;3.72;;
48835;SDS011;62581;47.342;7.908;2023-03-31T10:01:41;8.98;;;3.17;;
48835;SDS011;62581;47.342;7.908;2023-03-31T10:04:16;5.93;;;3.13;;
48835;SDS011;62581;47.342;7.908;2023-03-31T10:06:47;9.05;;;3.50;;
48835;SDS011;62581;47.342;7.908;2023-03-31T10:09:17;7.03;;;2.75;;
48835;SDS011;62581;47.342;7.908;2023-03-31T10:11:53;6.03;;;2.90;;
48835;SDS011;62581;47.342;7.908;2023-03-31T10:14:26;6.57;;;2.38;;
48835;SDS011;62581;47.342;7.908;2023-03-31T10:17:03;10.00;;;3.50;;
48835;SDS011;62581;47.342;7.908;2023-03-31T10:19:32;9.95;;;3.10;;
48835;SDS011;62581;47.342;7.908;2023-03-31T10:22:01;8.55;;;3.72;;
48835;SDS011;62581;47.342;7.908;2023-03-31T10:24:37;5.20;;;3.08;;
48835;SDS011;62581;47.342;7.908;2023-03-31T10:27:11;9.02;;;2.88;;
48835;SDS011;62581;47.342;7.908;2023-03-31T10:29:45;7.22;;;2.42;;
48835;SDS011;62581;47.342;7.908;2023-03-31T10:32:28;7.17;;;2.60;;
48835;SDS011;62581;47.342;7.908;2023-03-31T10:35:09;10.32;;;2.80;;
48835;SDS011;62581;47.342;7.908;2023-03-31T10:37:47;12.77;;;2.50;;
48835;SDS011;62581;47.342;7.908;2023-03-31T10:40:17;7.05;;;2.22;;
48835;SDS011;62581;47.342;7.908;2023-03-31T10:42:48;8.30;;;2.30;;
48835;SDS011;62581;47.342;7.908;2023-03-31T10:45:24;7.97;;;2.10;;
48835;SDS011;62581;47.342;7.908;2023-03-31T10:47:53;8.98;;;2.03;;
48835;SDS011;62581;47.342;7.908;2023-03-31T10:50:25;8.85;;;2.70;;
48835;SDS011;62581;47.342;7.908;2023-03-31T10:52:59;9.70;;;2.88;;
48835;SDS011;62581;47.342;7.908;2023-03-31T10:55:30;13.75;;;2.78;;
48835;SDS011;62581;47.342;7.908;2023-03-31T10:58:05;9.65;;;2.40;;
48835;SDS011;62581;47.342;7.908;2023-03-31T11:00:44;5.20;;;2.47;;
48835;SDS011;62581;47.342;7.908;2023-03-31T11:03:32;9.32;;;2.92;;
48835;SDS011;62581;47.342;7.908;2023-03-31T11:06:14;7.25;;;2.92;;
48835;SDS011;62581;47.342;7.908;2023-03-31T11:08:49;7.32;;;3.10;;
48835;SDS011;62581;47.342;7.908;2023-03-31T11:11:31;9.27;;;3.33;;
48835;SDS011;62581;47.342;7.908;2023-03-31T11:14:31;5.07;;;2.17;;
48835;SDS011;62581;47.342;7.908;2023-03-31T11:17:08;7.72;;;2.20;;
48835;SDS011;62581;47.342;7.908;2023-03-31T11:19:47;8.98;;;2.28;;
48835;SDS011;62581;47.342;7.908;2023-03-31T11:22:23;5.22;;;2.28;;
48835;SDS011;62581;47.342;7.908;2023-03-31T11:25:16;7.65;;;2.70;;
48835;SDS011;62581;47.342;7.908;2023-03-31T11:27:57;8.13;;;2.47;;
48835;SDS011;62581;47.342;7.908;2023-03-31T11:30:43;3.75;;;1.10;;
48835;SDS011;62581;47.342;7.908;2023-03-31T11:33:19;6.00;;;1.63;;
48835;SDS011;62581;47.342;7.908;2023-03-31T11:36:06;6.55;;;1.48;;
48835;SDS011;62581;47.342;7.908;2023-03-31T11:38:46;4.80;;;1.02;;
48835;SDS011;62581;47.342;7.908;2023-03-31T11:41:25;10.80;;;1.30;;
48835;SDS011;62581;47.342;7.908;2023-03-31T11:44:00;4.22;;;1.23;;
48835;SDS011;62581;47.342;7.908;2023-03-31T11:46:33;4.28;;;1.10;;
48835;SDS011;62581;47.342;7.908;2023-03-31T11:49:05;5.43;;;1.10;;
48835;SDS011;62581;47.342;7.908;2023-03-31T11:51:41;4.25;;;1.00;;
48835;SDS011;62581;47.342;7.908;2023-03-31T11:54:15;1.00;;;0.55;;
48835;SDS011;62581;47.342;7.908;2023-03-31T11:56:44;1.98;;;0.80;;
48835;SDS011;62581;47.342;7.908;2023-03-31T11:59:13;0.60;;;0.50;;
48835;SDS011;62581;47.342;7.908;2023-03-31T12:01:44;1.02;;;0.45;;
48835;SDS011;62581;47.342;7.908;2023-03-31T12:04:21;2.00;;;0.65;;
48835;SDS011;62581;47.342;7.908;2023-03-31T12:06:59;2.40;;;0.60;;
48835;SDS011;62581;47.342;7.908;2023-03-31T12:09:30;1.27;;;0.60;;
48835;SDS011;62581;47.342;7.908;2023-03-31T12:12:04;1.83;;;0.60;;
48835;SDS011;62581;47.342;7.908;2023-03-31T12:14:38;2.30;;;0.52;;
48835;SDS011;62581;47.342;7.908;2023-03-31T12:17:10;1.65;;;0.70;;
48835;SDS011;62581;47.342;7.908;2023-03-31T12:19:42;1.52;;;0.47;;
48835;SDS011;62581;47.342;7.908;2023-03-31T12:22:13;1.65;;;0.60;;
48835;SDS011;62581;47.342;7.908;2023-03-31T12:24:44;1.83;;;0.60;;
48835;SDS011;62581;47.342;7.908;2023-03-31T12:27:13;1.80;;;0.65;;
48835;SDS011;62581;47.342;7.908;2023-03-31T12:29:47;3.95;;;0.63;;
48835;SDS011;62581;47.342;7.908;2023-03-31T12:32:21;1.35;;;0.50;;
48835;SDS011;62581;47.342;7.908;2023-03-31T12:34:53;1.35;;;0.63;;
48835;SDS011;62581;47.342;7.908;2023-03-31T12:37:31;2.20;;;0.80;;
48835;SDS011;62581;47.342;7.908;2023-03-31T12:42:53;2.63;;;1.25;;
48835;SDS011;62581;47.342;7.908;2023-03-31T12:45:40;3.03;;;0.73;;
48835;SDS011;62581;47.342;7.908;2023-03-31T12:51:12;4.40;;;0.90;;
48835;SDS011;62581;47.342;7.908;2023-03-31T12:53:57;6.78;;;1.10;;
48835;SDS011;62581;47.342;7.908;2023-03-31T12:59:31;3.08;;;0.85;;
48835;SDS011;62581;47.342;7.908;2023-03-31T13:02:15;5.50;;;1.20;;
48835;SDS011;62581;47.342;7.908;2023-03-31T13:04:48;4.80;;;1.33;;
48835;SDS011;62581;47.342;7.908;2023-03-31T13:12:56;4.30;;;0.90;;
48835;SDS011;62581;47.342;7.908;2023-03-31T13:15:27;5.65;;;0.90;;
48835;SDS011;62581;47.342;7.908;2023-03-31T13:17:56;2.88;;;1.40;;
48835;SDS011;62581;47.342;7.908;2023-03-31T13:20:36;3.08;;;1.35;;
48835;SDS011;62581;47.342;7.908;2023-03-31T13:23:06;5.88;;;1.80;;
48835;SDS011;62581;47.342;7.908;2023-03-31T13:28:15;4.30;;;2.00;;
48835;SDS011;62581;47.342;7.908;2023-03-31T13:30:51;4.30;;;1.50;;
48835;SDS011;62581;47.342;7.908;2023-03-31T13:33:25;3.47;;;1.50;;
48835;SDS011;62581;47.342;7.908;2023-03-31T13:36:04;4.28;;;1.42;;
48835;SDS011;62581;47.342;7.908;2023-03-31T13:38:51;4.90;;;1.85;;
48835;SDS011;62581;47.342;7.908;2023-03-31T13:41:30;5.22;;;1.70;;
48835;SDS011;62581;47.342;7.908;2023-03-31T13:47:09;8.07;;;0.80;;
48835;SDS011;62581;47.342;7.908;2023-03-31T13:49:53;1.45;;;0.73;;
48835;SDS011;62581;47.342;7.908;2023-03-31T13:52:36;2.65;;;0.80;;
48835;SDS011;62581;47.342;7.908;2023-03-31T13:55:35;1.92;;;0.70;;
48835;SDS011;62581;47.342;7.908;2023-03-31T14:01:32;3.80;;;0.70;;
48835;SDS011;62581;47.342;7.908;2023-03-31T14:04:34;3.28;;;0.70;;
48835;SDS011;62581;47.342;7.908;2023-03-31T14:07:12;3.03;;;0.70;;
48835;SDS011;62581;47.342;7.908;2023-03-31T14:09:44;2.08;;;0.63;;
48835;SDS011;62581;47.342;7.908;2023-03-31T14:12:21;1.20;;;0.77;;
48835;SDS011;62581;47.342;7.908;2023-03-31T14:14:55;2.25;;;0.70;;
48835;SDS011;62581;47.342;7.908;2023-03-31T14:17:22;3.25;;;1.13;;
48835;SDS011;62581;47.342;7.908;2023-03-31T14:19:57;2.35;;;0.52;;
48835;SDS011;62581;47.342;7.908;2023-03-31T14:22:43;3.28;;;0.90;;
48835;SDS011;62581;47.342;7.908;2023-03-31T14:25:15;2.13;;;0.52;;
48835;SDS011;62581;47.342;7.908;2023-03-31T14:27:53;1.83;;;0.63;;
48835;SDS011;62581;47.342;7.908;2023-03-31T14:30:29;3.70;;;0.95;;
48835;SDS011;62581;47.342;7.908;2023-03-31T14:33:09;2.35;;;0.70;;
48835;SDS011;62581;47.342;7.908;2023-03-31T14:35:48;4.22;;;0.73;;
48835;SDS011;62581;47.342;7.908;2023-03-31T14:38:20;2.30;;;0.90;;
48835;SDS011;62581;47.342;7.908;2023-03-31T14:40:51;5.53;;;1.10;;
48835;SDS011;62581;47.342;7.908;2023-03-31T14:43:20;2.17;;;0.80;;
48835;SDS011;62581;47.342;7.908;2023-03-31T14:45:57;4.30;;;0.70;;
48835;SDS011;62581;47.342;7.908;2023-03-31T14:48:25;4.60;;;1.15;;
48835;SDS011;62581;47.342;7.908;2023-03-31T14:50:55;3.90;;;0.80;;
48835;SDS011;62581;47.342;7.908;2023-03-31T14:53:24;4.20;;;0.82;;
48835;SDS011;62581;47.342;7.908;2023-03-31T14:55:56;3.38;;;1.00;;
48835;SDS011;62581;47.342;7.908;2023-03-31T14:58:29;3.35;;;0.80;;
48835;SDS011;62581;47.342;7.908;2023-03-31T15:00:59;5.18;;;0.80;;
48835;SDS011;62581;47.342;7.908;2023-03-31T15:03:29;3.90;;;1.05;;
48835;SDS011;62581;47.342;7.908;2023-03-31T15:05:58;3.53;;;0.80;;
48835;SDS011;62581;47.342;7.908;2023-03-31T15:08:27;4.32;;;1.42;;
48835;SDS011;62581;47.342;7.908;2023-03-31T15:10:59;3.65;;;0.85;;
48835;SDS011;62581;47.342;7.908;2023-03-31T15:13:29;1.73;;;0.50;;
48835;SDS011;62581;47.342;7.908;2023-03-31T15:18:46;2.10;;;0.40;;
48835;SDS011;62581;47.342;7.908;2023-03-31T15:21:18;2.25;;;0.70;;
48835;SDS011;62581;47.342;7.908;2023-03-31T15:23:46;1.23;;;0.50;;
48835;SDS011;62581;47.342;7.908;2023-03-31T15:26:19;2.95;;;0.50;;
48835;SDS011;62581;47.342;7.908;2023-03-31T15:28:51;1.67;;;0.70;;
48835;SDS011;62581;47.342;7.908;2023-03-31T15:31:20;3.30;;;0.70;;
48835;SDS011;62581;47.342;7.908;2023-03-31T15:33:48;3.45;;;0.80;;
48835;SDS011;62581;47.342;7.908;2023-03-31T15:36:16;1.45;;;0.90;;
48835;SDS011;62581;47.342;7.908;2023-03-31T15:38:43;2.05;;;0.80;;
48835;SDS011;62581;47.342;7.908;2023-03-31T15:41:10;3.67;;;0.82;;
48835;SDS011;62581;47.342;7.908;2023-03-31T15:46:15;1.75;;;0.70;;
48835;SDS011;62581;47.342;7.908;2023-03-31T15:48:48;0.88;;;0.40;;
48835;SDS011;62581;47.342;7.908;2023-03-31T15:51:17;0.88;;;0.50;;
48835;SDS011;62581;47.342;7.908;2023-03-31T15:53:46;2.97;;;0.52;;
48835;SDS011;62581;47.342;7.908;2023-03-31T15:56:27;0.80;;;0.60;;
48835;SDS011;62581;47.342;7.908;2023-03-31T15:58:57;1.25;;;0.60;;